createdAt,value
2022-09-11T00:00:56.219Z,101179.13
2022-09-11T00:03:24.510Z,101173.97
2022-09-11T00:05:52.046Z,101170.78
2022-09-11T00:08:21.316Z,101178.00
2022-09-11T00:10:48.422Z,101171.53
2022-09-11T00:13:19.527Z,101173.72
2022-09-11T00:15:46.273Z,101179.41
2022-09-11T00:18:14.986Z,101178.59
2022-09-11T00:20:54.002Z,101186.38
2022-09-11T00:23:22.003Z,101190.78
2022-09-11T00:25:49.237Z,101190.13
2022-09-11T00:28:19.745Z,101188.47
2022-09-11T00:30:47.702Z,101186.63
2022-09-11T00:33:15.600Z,101184.97
2022-09-11T00:35:42.639Z,101185.09
2022-09-11T00:38:10.593Z,101181.97
2022-09-11T00:40:46.504Z,101185.81
2022-09-11T00:43:16.623Z,101178.06
2022-09-11T00:45:46.253Z,101194.97
2022-09-11T00:48:21.968Z,101193.16
2022-09-11T00:50:50.315Z,101195.94
2022-09-11T00:53:18.755Z,101200.94
2022-09-11T00:55:58.341Z,101199.41
2022-09-11T00:58:28.548Z,101201.50
2022-09-11T01:00:56.716Z,101206.03
2022-09-11T01:03:26.003Z,101216.72
2022-09-11T01:05:54.669Z,101222.13
2022-09-11T01:08:22.655Z,101217.16
2022-09-11T01:10:57.830Z,101204.94
2022-09-11T01:13:29.851Z,101209.38
2022-09-11T01:16:17.989Z,101211.88
2022-09-11T01:18:55.607Z,101205.91
2022-09-11T01:21:46.315Z,101215.75
2022-09-11T01:24:27.986Z,101215.47
2022-09-11T01:27:29.984Z,101226.13
2022-09-11T01:29:59.254Z,101229.72
2022-09-11T01:33:03.278Z,101230.41
2022-09-11T01:35:45.221Z,101229.44
2022-09-11T01:38:22.360Z,101238.16
2022-09-11T01:40:59.243Z,101239.84
2022-09-11T01:43:30.649Z,101233.47
2022-09-11T01:46:01.423Z,101242.75
2022-09-11T01:48:44.177Z,101247.19
2022-09-11T01:51:17.796Z,101244.56
2022-09-11T01:53:50.343Z,101241.94
2022-09-11T01:56:23.570Z,101249.66
2022-09-11T01:58:56.290Z,101250.63
2022-09-11T02:01:30.692Z,101247.88
2022-09-11T02:04:07.184Z,101252.16
2022-09-11T02:06:46.414Z,101251.88
2022-09-11T02:09:16.574Z,101251.88
2022-09-11T02:11:47.038Z,101256.22
2022-09-11T02:14:22.794Z,101262.28
2022-09-11T02:16:51.007Z,101262.16
2022-09-11T02:19:20.187Z,101261.19
2022-09-11T02:21:48.229Z,101262.84
2022-09-11T02:24:16.326Z,101268.22
2022-09-11T02:26:47.333Z,101266.56
2022-09-11T02:29:14.754Z,101267.28
2022-09-11T02:31:42.396Z,101267.13
2022-09-11T02:34:11.492Z,101272.28
2022-09-11T02:37:13.415Z,101274.22
2022-09-11T02:40:14.739Z,101268.09
2022-09-11T02:42:43.906Z,101278.63
2022-09-11T02:45:29.378Z,101281.28
2022-09-11T02:48:26.550Z,101284.88
2022-09-11T02:50:59.410Z,101282.13
2022-09-11T02:53:44.545Z,101270.63
2022-09-11T02:56:31.187Z,101281.97
2022-09-11T02:59:03.774Z,101275.88
2022-09-11T03:01:31.773Z,101279.47
2022-09-11T03:03:58.217Z,101284.75
2022-09-11T03:06:27.188Z,101286.66
2022-09-11T03:08:53.771Z,101283.09
2022-09-11T03:11:20.315Z,101290.13
2022-09-11T03:13:47.048Z,101285.84
2022-09-11T03:16:13.701Z,101291.09
2022-09-11T03:18:40.192Z,101285.00
2022-09-11T03:21:06.602Z,101283.34
2022-09-11T03:23:33.259Z,101288.72
2022-09-11T03:25:59.744Z,101290.53
2022-09-11T03:28:26.277Z,101291.50
2022-09-11T03:30:53.038Z,101295.94
2022-09-11T03:33:19.484Z,101298.72
2022-09-11T03:35:45.922Z,101297.88
2022-09-11T03:38:12.590Z,101300.63
2022-09-11T03:40:41.694Z,101305.06
2022-09-11T03:43:09.336Z,101302.41
2022-09-11T03:45:35.791Z,101307.78
2022-09-11T03:48:02.492Z,101304.63
2022-09-11T03:50:28.914Z,101311.28
2022-09-11T03:52:55.437Z,101302.41
2022-09-11T03:55:23.753Z,101306.84
2022-09-11T03:57:50.284Z,101299.22
2022-09-11T04:00:16.862Z,101303.50
2022-09-11T04:02:43.295Z,101299.22
2022-09-11T04:05:10.668Z,101303.78
2022-09-11T04:07:38.008Z,101301.28
2022-09-11T04:10:04.754Z,101305.69
2022-09-11T04:12:31.144Z,101301.41
2022-09-11T04:14:57.551Z,101304.84
2022-09-11T04:17:24.432Z,101306.66
2022-09-11T04:19:50.861Z,101308.31
2022-09-11T04:22:17.297Z,101304.03
2022-09-11T04:24:43.683Z,101299.03
2022-09-11T04:27:10.105Z,101301.66
2022-09-11T04:29:36.518Z,101305.13
2022-09-11T04:32:03.365Z,101299.75
2022-09-11T04:34:29.957Z,101301.28
2022-09-11T04:36:56.757Z,101304.84
2022-09-11T04:39:23.277Z,101307.47
2022-09-11T04:41:49.732Z,101313.59
2022-09-11T04:44:16.219Z,101308.19
2022-09-11T04:46:42.953Z,101312.66
2022-09-11T04:49:10.784Z,101304.63
2022-09-11T04:51:39.029Z,101309.75
2022-09-11T04:54:05.664Z,101300.06
2022-09-11T04:56:35.043Z,101312.38
2022-09-11T04:59:05.798Z,101315.97
2022-09-11T05:01:34.011Z,101310.03
2022-09-11T05:04:01.615Z,101322.31
2022-09-11T05:06:30.242Z,101317.44
2022-09-11T05:09:01.394Z,101323.41
2022-09-11T05:11:27.809Z,101336.97
2022-09-11T05:13:54.254Z,101342.91
2022-09-11T05:16:20.773Z,101344.13
2022-09-11T05:18:52.098Z,101353.97
2022-09-11T05:21:20.090Z,101346.91
2022-09-11T05:23:48.936Z,101354.66
2022-09-11T05:26:20.858Z,101353.16
2022-09-11T05:28:47.668Z,101358.66
2022-09-11T05:31:18.608Z,101354.34
2022-09-11T05:33:45.844Z,101361.28
2022-09-11T05:36:13.728Z,101372.78
2022-09-11T05:38:40.936Z,101374.31
2022-09-11T05:41:09.385Z,101385.66
2022-09-11T05:43:36.517Z,101378.72
2022-09-11T05:46:03.294Z,101383.28
2022-09-11T05:48:31.671Z,101386.88
2022-09-11T05:51:01.228Z,101386.50
2022-09-11T05:53:32.045Z,101390.91
2022-09-11T05:56:00.260Z,101391.63
2022-09-11T05:58:32.199Z,101388.84
2022-09-11T06:01:07.211Z,101402.47
2022-09-11T06:03:34.475Z,101394.84
2022-09-11T06:06:05.671Z,101400.22
2022-09-11T06:08:34.446Z,101393.03
2022-09-11T06:11:02.685Z,101400.63
2022-09-11T06:13:30.803Z,101402.19
2022-09-11T06:15:57.508Z,101404.59
2022-09-11T06:18:24.002Z,101410.69
2022-09-11T06:21:07.098Z,101413.31
2022-09-11T06:23:35.267Z,101415.66
2022-09-11T06:26:10.256Z,101418.19
2022-09-11T06:28:37.681Z,101422.34
2022-09-11T06:31:05.463Z,101421.50
2022-09-11T06:33:36.902Z,101425.25
2022-09-11T06:36:10.571Z,101426.34
2022-09-11T06:38:38.268Z,101426.19
2022-09-11T06:41:07.014Z,101426.75
2022-09-11T06:43:33.945Z,101437.28
2022-09-11T06:46:05.342Z,101430.94
2022-09-11T06:48:31.849Z,101432.34
2022-09-11T06:51:05.882Z,101431.13
2022-09-11T06:53:32.551Z,101434.59
2022-09-11T06:56:00.492Z,101438.88
2022-09-11T06:58:27.477Z,101441.63
2022-09-11T07:00:53.982Z,101435.56
2022-09-11T07:03:20.417Z,101439.00
2022-09-11T07:05:48.013Z,101434.84
2022-09-11T07:08:14.415Z,101441.25
2022-09-11T07:10:41.215Z,101444.84
2022-09-11T07:13:07.694Z,101438.00
2022-09-11T07:15:34.161Z,101446.88
2022-09-11T07:18:02.087Z,101450.03
2022-09-11T07:20:28.804Z,101446.31
2022-09-11T07:22:55.238Z,101450.47
2022-09-11T07:25:21.669Z,101452.44
2022-09-11T07:27:48.141Z,101450.16
2022-09-11T07:30:14.699Z,101446.03
2022-09-11T07:32:41.192Z,101453.53
2022-09-11T07:35:07.861Z,101444.28
2022-09-11T07:37:34.344Z,101446.50
2022-09-11T07:40:00.857Z,101448.75
2022-09-11T07:42:28.882Z,101455.16
2022-09-11T07:44:55.743Z,101456.94
2022-09-11T07:47:22.645Z,101465.16
2022-09-11T07:49:51.018Z,101469.19
2022-09-11T07:52:20.174Z,101461.28
2022-09-11T07:54:47.097Z,101461.84
2022-09-11T07:57:13.534Z,101467.13
2022-09-11T07:59:39.956Z,101465.63
2022-09-11T08:02:07.881Z,101472.28
2022-09-11T08:04:34.458Z,101471.03
2022-09-11T08:07:00.916Z,101468.97
2022-09-11T08:09:27.631Z,101481.88
2022-09-11T08:11:55.851Z,101475.91
2022-09-11T08:14:23.423Z,101491.03
2022-09-11T08:16:50.182Z,101486.47
2022-09-11T08:19:18.883Z,101488.16
2022-09-11T08:21:47.820Z,101491.34
2022-09-11T08:24:16.989Z,101495.06
2022-09-11T08:26:48.618Z,101499.50
2022-09-11T08:29:15.533Z,101497.84
2022-09-11T08:31:42.023Z,101494.22
2022-09-11T08:34:09.688Z,101489.66
2022-09-11T08:36:36.142Z,101496.88
2022-09-11T08:39:03.439Z,101500.34
2022-09-11T08:41:48.171Z,101506.31
2022-09-11T08:44:28.040Z,101507.97
2022-09-11T08:47:00.943Z,101506.75
2022-09-11T08:49:35.612Z,101521.44
2022-09-11T08:52:03.666Z,101513.41
2022-09-11T08:54:33.423Z,101514.94
2022-09-11T08:57:10.926Z,101508.56
2022-09-11T09:00:23.070Z,101517.03
2022-09-11T09:02:54.032Z,101518.53
2022-09-11T09:05:54.344Z,101520.94
2022-09-11T09:08:47.429Z,101528.28
2022-09-11T09:11:33.447Z,101529.25
2022-09-11T09:14:13.406Z,101526.03
2022-09-11T09:17:05.098Z,101534.38
2022-09-11T09:19:38.319Z,101530.78
2022-09-11T09:22:19.620Z,101538.44
2022-09-11T09:24:54.518Z,101536.66
2022-09-11T09:27:35.759Z,101541.91
2022-09-11T09:30:13.504Z,101543.47
2022-09-11T09:32:50.705Z,101536.38
2022-09-11T09:35:23.889Z,101544.03
2022-09-11T09:37:50.461Z,101540.81
2022-09-11T09:40:18.947Z,101552.78
2022-09-11T09:43:15.330Z,101553.19
2022-09-11T09:46:00.706Z,101547.50
2022-09-11T09:48:31.510Z,101551.41
2022-09-11T09:50:57.973Z,101548.91
2022-09-11T09:53:36.850Z,101550.72
2022-09-11T09:56:04.952Z,101544.59
2022-09-11T09:58:40.749Z,101540.13
2022-09-11T10:01:39.910Z,101546.53
2022-09-11T10:04:13.255Z,101539.16
2022-09-11T10:06:39.805Z,101549.84
2022-09-11T10:09:06.630Z,101553.59
2022-09-11T10:11:33.167Z,101556.06
2022-09-11T10:13:59.698Z,101549.38
2022-09-11T10:16:27.989Z,101551.75
2022-09-11T10:18:55.891Z,101557.97
2022-09-11T10:21:33.668Z,101554.50
2022-09-11T10:24:02.166Z,101541.75
2022-09-11T10:26:31.346Z,101545.44
2022-09-11T10:29:07.797Z,101538.75
2022-09-11T10:31:35.751Z,101550.63
2022-09-11T10:34:04.720Z,101561.63
2022-09-11T10:36:31.666Z,101554.69
2022-09-11T10:39:00.858Z,101548.25
2022-09-11T10:41:34.829Z,101550.13
2022-09-11T10:44:11.662Z,101553.75
2022-09-11T10:46:41.205Z,101553.03
2022-09-11T10:49:22.221Z,101553.66
2022-09-11T10:52:08.365Z,101550.66
2022-09-11T10:54:50.623Z,101544.97
2022-09-11T10:57:27.911Z,101545.22
2022-09-11T11:00:02.425Z,101541.63
2022-09-11T11:02:33.056Z,101536.88
2022-09-11T11:05:08.987Z,101544.84
2022-09-11T11:07:50.269Z,101539.50
2022-09-11T11:11:03.713Z,101547.03
2022-09-11T11:13:46.875Z,101537.19
2022-09-11T11:16:31.205Z,101539.00
2022-09-11T11:19:03.795Z,101541.09
2022-09-11T11:21:55.305Z,101535.88
2022-09-11T11:24:32.443Z,101540.88
2022-09-11T11:27:23.110Z,101534.09
2022-09-11T11:29:56.235Z,101543.75
2022-09-11T11:32:46.874Z,101534.22
2022-09-11T11:35:35.046Z,101535.97
2022-09-11T11:38:27.553Z,101529.66
2022-09-11T11:41:03.227Z,101535.31
2022-09-11T11:43:34.277Z,101541.69
2022-09-11T11:46:30.109Z,101540.66
2022-09-11T11:49:10.013Z,101534.16
2022-09-11T11:52:18.423Z,101536.81
2022-09-11T11:55:20.433Z,101532.53
2022-09-11T11:58:24.161Z,101531.25
2022-09-11T12:00:58.240Z,101527.81
2022-09-11T12:03:34.419Z,101520.91
2022-09-11T12:06:00.852Z,101525.59
2022-09-11T12:08:27.593Z,101530.31
2022-09-11T12:10:59.078Z,101528.13
2022-09-11T12:13:32.366Z,101527.75
2022-09-11T12:16:17.366Z,101529.00
2022-09-11T12:19:04.043Z,101531.13
2022-09-11T12:21:31.488Z,101526.88
2022-09-11T12:23:58.036Z,101524.34
2022-09-11T12:26:26.477Z,101529.91
2022-09-11T12:29:20.177Z,101519.56
2022-09-11T12:31:49.296Z,101525.06
2022-09-11T12:34:46.864Z,101519.09
2022-09-11T12:37:27.552Z,101523.94
2022-09-11T12:40:11.154Z,101517.94
2022-09-11T12:42:56.370Z,101514.91
2022-09-11T12:45:31.608Z,101512.88
2022-09-11T12:48:21.483Z,101507.66
2022-09-11T12:53:37.560Z,101488.66
2022-09-11T12:56:07.170Z,101492.72
2022-09-11T12:58:40.739Z,101486.22
2022-09-11T13:01:10.354Z,101493.31
2022-09-11T13:03:46.094Z,101491.44
2022-09-11T13:06:13.710Z,101494.75
2022-09-11T13:08:49.588Z,101487.00
2022-09-11T13:11:35.081Z,101481.75
2022-09-11T13:14:01.865Z,101476.81
2022-09-11T13:16:34.628Z,101468.09
2022-09-11T13:19:07.338Z,101472.63
2022-09-11T13:21:38.535Z,101468.69
2022-09-11T13:24:28.540Z,101466.19
2022-09-11T13:26:59.700Z,101468.69
2022-09-11T13:29:29.221Z,101467.78
2022-09-11T13:31:58.367Z,101459.59
2022-09-11T13:34:27.656Z,101464.31
2022-09-11T13:36:57.100Z,101458.13
2022-09-11T13:39:26.649Z,101454.59
2022-09-11T13:42:04.830Z,101458.75
2022-09-11T13:44:40.259Z,101459.19
2022-09-11T13:47:19.128Z,101462.50
2022-09-11T13:49:47.460Z,101457.22
2022-09-11T13:52:14.942Z,101454.97
2022-09-11T13:54:46.587Z,101455.66
2022-09-11T13:57:15.135Z,101453.06
2022-09-11T13:59:46.215Z,101447.47
2022-09-11T14:02:18.652Z,101445.66
2022-09-11T14:04:47.288Z,101443.22
2022-09-11T14:07:24.485Z,101441.97
2022-09-11T14:10:05.060Z,101441.13
2022-09-11T14:12:33.609Z,101432.47
2022-09-11T14:15:08.554Z,101439.06
2022-09-11T14:17:39.350Z,101433.09
2022-09-11T14:20:16.865Z,101428.09
2022-09-11T14:22:43.585Z,101419.84
2022-09-11T14:25:10.633Z,101431.63
2022-09-11T14:27:41.618Z,101422.19
2022-09-11T14:30:37.424Z,101421.16
2022-09-11T14:33:21.795Z,101423.41
2022-09-11T14:35:48.849Z,101411.66
2022-09-11T14:38:18.873Z,101409.75
2022-09-11T14:40:52.416Z,101407.78
2022-09-11T14:43:25.719Z,101411.09
2022-09-11T14:45:54.567Z,101417.44
2022-09-11T14:48:21.037Z,101411.47
2022-09-11T14:50:47.662Z,101410.66
2022-09-11T14:53:19.991Z,101406.09
2022-09-11T14:55:46.472Z,101411.69
2022-09-11T14:58:12.935Z,101414.56
2022-09-11T15:00:39.414Z,101411.47
2022-09-11T15:03:05.868Z,101405.94
2022-09-11T15:05:33.807Z,101416.81
2022-09-11T15:08:00.568Z,101408.19
2022-09-11T15:10:27.445Z,101402.81
2022-09-11T15:12:55.525Z,101392.50
2022-09-11T15:15:21.926Z,101397.88
2022-09-11T15:17:48.399Z,101389.44
2022-09-11T15:20:14.843Z,101386.78
2022-09-11T15:22:41.435Z,101386.31
2022-09-11T15:25:08.276Z,101383.56
2022-09-11T15:27:34.728Z,101379.91
2022-09-11T15:30:01.218Z,101385.47
2022-09-11T15:32:27.694Z,101366.97
2022-09-11T15:34:54.756Z,101375.66
2022-09-11T15:37:21.441Z,101383.09
2022-09-11T15:39:50.321Z,101376.88
2022-09-11T15:42:17.178Z,101371.13
2022-09-11T15:44:44.577Z,101384.94
2022-09-11T15:47:11.419Z,101373.81
2022-09-11T15:49:44.438Z,101375.66
2022-09-11T15:52:11.189Z,101374.22
2022-09-11T15:54:37.664Z,101373.59
2022-09-11T15:57:04.244Z,101369.06
2022-09-11T15:59:30.691Z,101361.22
2022-09-11T16:01:57.176Z,101366.53
2022-09-11T16:04:28.173Z,101360.09
2022-09-11T16:06:55.203Z,101375.06
2022-09-11T16:09:26.262Z,101362.66
2022-09-11T16:11:54.606Z,101367.91
2022-09-11T16:14:29.111Z,101366.19
2022-09-11T16:16:56.884Z,101359.28
2022-09-11T16:19:27.903Z,101361.50
2022-09-11T16:21:56.794Z,101360.94
2022-09-11T16:24:25.416Z,101357.06
2022-09-11T16:26:55.827Z,101361.78
2022-09-11T16:29:25.607Z,101354.38
2022-09-11T16:31:52.182Z,101358.03
2022-09-11T16:34:18.672Z,101355.50
2022-09-11T16:36:46.018Z,101354.44
2022-09-11T16:39:16.150Z,101358.22
2022-09-11T16:41:43.010Z,101353.94
2022-09-11T16:44:12.879Z,101345.44
2022-09-11T16:46:40.661Z,101354.56
2022-09-11T16:49:07.139Z,101357.81
2022-09-11T16:51:34.187Z,101350.19
2022-09-11T16:54:01.431Z,101342.63
2022-09-11T16:56:28.024Z,101332.19
2022-09-11T16:58:57.076Z,101340.72
2022-09-11T17:01:26.233Z,101340.91
2022-09-11T17:03:56.046Z,101328.50
2022-09-11T17:06:29.325Z,101331.22
2022-09-11T17:08:56.560Z,101331.50
2022-09-11T17:11:23.081Z,101340.03
2022-09-11T17:13:50.403Z,101332.94
2022-09-11T17:16:20.286Z,101327.47
2022-09-11T17:18:53.483Z,101332.88
2022-09-11T17:21:22.926Z,101338.94
2022-09-11T17:23:50.472Z,101338.72
2022-09-11T17:26:17.322Z,101343.78
2022-09-11T17:28:47.254Z,101337.06
2022-09-11T17:31:15.733Z,101333.66
2022-09-11T17:33:43.507Z,101338.97
2022-09-11T17:36:12.208Z,101337.06
2022-09-11T17:38:39.819Z,101341.09
2022-09-11T17:41:08.098Z,101338.28
2022-09-11T17:43:36.616Z,101328.72
2022-09-11T17:46:15.187Z,101336.69
2022-09-11T17:48:42.765Z,101324.94
2022-09-11T17:51:25.019Z,101334.09
2022-09-11T17:53:55.292Z,101334.91
2022-09-11T17:56:23.089Z,101336.41
2022-09-11T17:58:54.055Z,101332.41
2022-09-11T18:01:21.695Z,101340.06
2022-09-11T18:03:56.632Z,101335.38
2022-09-11T18:06:29.115Z,101332.56
2022-09-11T18:09:01.757Z,101333.69
2022-09-11T18:11:29.908Z,101328.66
2022-09-11T18:13:56.377Z,101336.59
2022-09-11T18:16:22.932Z,101334.06
2022-09-11T18:18:49.710Z,101326.13
2022-09-11T18:21:16.232Z,101337.94
2022-09-11T18:23:46.231Z,101334.44
2022-09-11T18:26:27.667Z,101337.88
2022-09-11T18:29:00.924Z,101335.81
2022-09-11T18:31:30.128Z,101338.09
2022-09-11T18:33:59.957Z,101336.91
2022-09-11T18:36:28.650Z,101339.59
2022-09-11T18:38:57.225Z,101337.22
2022-09-11T18:41:24.473Z,101331.88
2022-09-11T18:43:54.957Z,101331.00
2022-09-11T18:46:22.058Z,101342.03
2022-09-11T18:48:50.289Z,101336.75
2022-09-11T18:51:17.798Z,101331.78
2022-09-11T18:53:48.129Z,101337.88
2022-09-11T18:56:15.476Z,101326.09
2022-09-11T18:58:42.119Z,101341.19
2022-09-11T19:01:11.598Z,101332.72
2022-09-11T19:03:42.144Z,101342.09
2022-09-11T19:06:10.529Z,101335.88
2022-09-11T19:08:38.307Z,101337.44
2022-09-11T19:11:09.682Z,101332.34
2022-09-11T19:13:37.982Z,101347.22
2022-09-11T19:16:04.847Z,101349.47
2022-09-11T19:18:31.810Z,101347.72
2022-09-11T19:21:08.149Z,101343.25
2022-09-11T19:23:37.342Z,101336.19
2022-09-11T19:26:05.975Z,101340.38
2022-09-11T19:28:35.574Z,101339.16
2022-09-11T19:31:03.253Z,101340.72
2022-09-11T19:33:31.968Z,101337.00
2022-09-11T19:36:10.760Z,101339.78
2022-09-11T19:38:42.726Z,101343.69
2022-09-11T19:41:11.977Z,101347.59
2022-09-11T19:43:40.008Z,101357.59
2022-09-11T19:46:06.386Z,101348.03
2022-09-11T19:48:36.114Z,101350.38
2022-09-11T19:51:02.504Z,101357.91
2022-09-11T19:53:30.171Z,101352.34
2022-09-11T19:55:57.963Z,101346.84
2022-09-11T19:58:25.288Z,101349.91
2022-09-11T20:00:51.891Z,101348.38
2022-09-11T20:03:18.944Z,101350.63
2022-09-11T20:05:46.254Z,101347.00
2022-09-11T20:08:16.170Z,101354.91
2022-09-11T20:10:45.765Z,101354.50
2022-09-11T20:13:13.134Z,101357.56
2022-09-11T20:15:41.275Z,101351.13
2022-09-11T20:18:08.530Z,101347.97
2022-09-11T20:20:36.812Z,101347.97
2022-09-11T20:23:04.137Z,101348.53
2022-09-11T20:25:31.153Z,101342.16
2022-09-11T20:28:00.450Z,101342.69
2022-09-11T20:30:27.288Z,101341.59
2022-09-11T20:32:53.805Z,101336.59
2022-09-11T20:35:20.294Z,101331.75
2022-09-11T20:37:46.727Z,101332.72
2022-09-11T20:40:13.138Z,101341.47
2022-09-11T20:42:39.824Z,101337.56
2022-09-11T20:45:06.769Z,101331.03
2022-09-11T20:47:33.161Z,101341.00
2022-09-11T20:50:00.627Z,101334.78
2022-09-11T20:52:27.330Z,101334.78
2022-09-11T20:54:54.329Z,101333.25
2022-09-11T20:57:20.797Z,101333.13
2022-09-11T20:59:49.868Z,101333.81
2022-09-11T21:02:17.627Z,101329.38
2022-09-11T21:04:44.240Z,101327.97
2022-09-11T21:07:11.164Z,101319.94
2022-09-11T21:09:40.042Z,101319.66
2022-09-11T21:12:07.005Z,101323.66
2022-09-11T21:14:33.426Z,101316.28
2022-09-11T21:16:59.963Z,101323.75
2022-09-11T21:19:26.541Z,101318.88
2022-09-11T21:21:53.019Z,101318.47
2022-09-11T21:24:19.481Z,101324.84
2022-09-11T21:26:45.964Z,101321.59
2022-09-11T21:29:13.568Z,101313.13
2022-09-11T21:31:39.996Z,101305.66
2022-09-11T21:34:07.262Z,101306.75
2022-09-11T21:36:33.809Z,101319.06
2022-09-11T21:39:00.316Z,101312.41
2022-09-11T21:41:26.710Z,101311.00
2022-09-11T21:43:53.247Z,101314.84
2022-09-11T21:46:20.132Z,101316.09
2022-09-11T21:48:46.635Z,101308.34
2022-09-11T21:51:18.681Z,101305.41
2022-09-11T21:53:47.136Z,101313.41
2022-09-11T21:56:19.795Z,101309.41
2022-09-11T21:58:47.652Z,101308.56
2022-09-11T22:01:14.686Z,101308.69
2022-09-11T22:03:41.271Z,101317.09
2022-09-11T22:06:10.135Z,101316.53
2022-09-11T22:08:41.175Z,101309.16
2022-09-11T22:11:07.738Z,101313.81
2022-09-11T22:13:37.934Z,101313.25
2022-09-11T22:16:08.779Z,101310.88
2022-09-11T22:18:36.951Z,101318.06
2022-09-11T22:21:04.482Z,101309.50
2022-09-11T22:23:31.993Z,101310.19
2022-09-11T22:26:32.440Z,101299.56
2022-09-11T22:28:59.533Z,101303.28
2022-09-11T22:31:28.143Z,101299.09
2022-09-11T22:33:55.563Z,101305.72
2022-09-11T22:36:27.681Z,101306.53
2022-09-11T22:38:55.152Z,101301.28
2022-09-11T22:41:22.177Z,101298.78
2022-09-11T22:43:50.013Z,101299.63
2022-09-11T22:46:20.091Z,101301.81
2022-09-11T22:48:46.906Z,101294.88
2022-09-11T22:51:13.398Z,101296.94
2022-09-11T22:53:39.833Z,101299.81
2022-09-11T22:56:06.975Z,101298.41
2022-09-11T22:58:33.559Z,101290.78
2022-09-11T23:01:01.046Z,101296.97
2022-09-11T23:03:27.814Z,101293.41
2022-09-11T23:06:17.888Z,101296.84
2022-09-11T23:08:46.026Z,101299.38
2022-09-11T23:11:15.268Z,101294.13
2022-09-11T23:13:42.981Z,101298.78
2022-09-11T23:16:15.530Z,101291.88
2022-09-11T23:18:43.019Z,101285.66
2022-09-11T23:21:10.664Z,101285.78
2022-09-11T23:23:41.075Z,101278.84
2022-09-11T23:26:09.284Z,101278.16
2022-09-11T23:28:35.934Z,101281.03
2022-09-11T23:31:03.613Z,101275.44
2022-09-11T23:33:31.006Z,101276.69
2022-09-11T23:35:57.387Z,101277.75
2022-09-11T23:38:23.870Z,101277.13
2022-09-11T23:40:50.351Z,101273.22
2022-09-11T23:43:16.738Z,101284.00
2022-09-11T23:45:43.214Z,101275.53
2022-09-11T23:48:09.709Z,101270.50
2022-09-11T23:50:36.111Z,101268.72
2022-09-11T23:53:02.548Z,101275.16
2022-09-11T23:55:29.328Z,101280.69
2022-09-11T23:57:55.782Z,101274.59
